sensor_id;sensor_type;location;lat;lon;timestamp;pressure;altitude;pressure_sealevel;temperature
30765;BMP180;494;48.744;10.106;2023-06-22T00:02:18;95708.00;;;20.50
30765;BMP180;494;48.744;10.106;2023-06-22T00:04:47;95826.00;;;20.40
30765;BMP180;494;48.744;10.106;2023-06-22T00:07:17;95832.00;;;20.40
30765;BMP180;494;48.744;10.106;2023-06-22T00:09:46;95835.00;;;20.30
30765;BMP180;494;48.744;10.106;2023-06-22T00:12:14;95734.00;;;20.40
30765;BMP180;494;48.744;10.106;2023-06-22T00:14:43;95838.00;;;20.20
30765;BMP180;494;48.744;10.106;2023-06-22T00:17:12;95754.00;;;20.30
30765;BMP180;494;48.744;10.106;2023-06-22T00:19:41;95824.00;;;20.00
30765;BMP180;494;48.744;10.106;2023-06-22T00:22:10;95816.00;;;20.20
30765;BMP180;494;48.744;10.106;2023-06-22T00:24:40;95791.00;;;20.10
30765;BMP180;494;48.744;10.106;2023-06-22T00:27:09;95819.00;;;20.20
30765;BMP180;494;48.744;10.106;2023-06-22T00:29:38;95674.00;;;20.20
30765;BMP180;494;48.744;10.106;2023-06-22T00:32:07;95667.00;;;20.20
30765;BMP180;494;48.744;10.106;2023-06-22T00:34:35;95829.00;;;20.20
30765;BMP180;494;48.744;10.106;2023-06-22T00:37:04;95727.00;;;20.10
30765;BMP180;494;48.744;10.106;2023-06-22T00:39:33;95825.00;;;19.80
30765;BMP180;494;48.744;10.106;2023-06-22T00:42:04;95721.00;;;19.90
30765;BMP180;494;48.744;10.106;2023-06-22T00:44:33;95763.00;;;19.90
30765;BMP180;494;48.744;10.106;2023-06-22T00:47:02;95847.00;;;19.90
30765;BMP180;494;48.744;10.106;2023-06-22T00:49:31;95828.00;;;19.90
30765;BMP180;494;48.744;10.106;2023-06-22T00:52:00;95822.00;;;20.00
30765;BMP180;494;48.744;10.106;2023-06-22T00:54:29;95703.00;;;20.00
30765;BMP180;494;48.744;10.106;2023-06-22T00:56:58;95431.00;;;20.00
30765;BMP180;494;48.744;10.106;2023-06-22T00:59:29;95821.00;;;19.90
30765;BMP180;494;48.744;10.106;2023-06-22T01:01:57;95822.00;;;19.90
30765;BMP180;494;48.744;10.106;2023-06-22T01:04:37;95818.00;;;20.00
30765;BMP180;494;48.744;10.106;2023-06-22T01:07:19;95814.00;;;19.90
30765;BMP180;494;48.744;10.106;2023-06-22T01:09:59;95793.00;;;19.90
30765;BMP180;494;48.744;10.106;2023-06-22T01:12:35;95738.00;;;20.00
30765;BMP180;494;48.744;10.106;2023-06-22T01:15:16;95718.00;;;19.90
30765;BMP180;494;48.744;10.106;2023-06-22T01:17:49;95825.00;;;19.90
30765;BMP180;494;48.744;10.106;2023-06-22T01:20:21;95829.00;;;19.90
30765;BMP180;494;48.744;10.106;2023-06-22T01:23:09;95757.00;;;20.00
30765;BMP180;494;48.744;10.106;2023-06-22T01:25:50;95753.00;;;20.00
30765;BMP180;494;48.744;10.106;2023-06-22T01:28:46;95705.00;;;20.00
30765;BMP180;494;48.744;10.106;2023-06-22T01:31:19;95707.00;;;19.90
30765;BMP180;494;48.744;10.106;2023-06-22T01:33:55;95820.00;;;20.00
30765;BMP180;494;48.744;10.106;2023-06-22T01:36:27;95477.00;;;20.00
30765;BMP180;494;48.744;10.106;2023-06-22T01:38:58;95844.00;;;20.00
30765;BMP180;494;48.744;10.106;2023-06-22T01:41:30;95820.00;;;20.00
30765;BMP180;494;48.744;10.106;2023-06-22T01:44:03;95816.00;;;20.00
30765;BMP180;494;48.744;10.106;2023-06-22T01:46:34;95816.00;;;19.90
30765;BMP180;494;48.744;10.106;2023-06-22T01:49:04;95815.00;;;19.90
30765;BMP180;494;48.744;10.106;2023-06-22T01:51:33;95848.00;;;20.00
30765;BMP180;494;48.744;10.106;2023-06-22T01:54:02;95624.00;;;20.00
30765;BMP180;494;48.744;10.106;2023-06-22T01:56:32;95821.00;;;20.10
30765;BMP180;494;48.744;10.106;2023-06-22T01:59:10;95814.00;;;19.90
30765;BMP180;494;48.744;10.106;2023-06-22T02:01:44;95728.00;;;19.90
30765;BMP180;494;48.744;10.106;2023-06-22T02:04:24;95801.00;;;19.90
30765;BMP180;494;48.744;10.106;2023-06-22T02:06:58;95806.00;;;20.00
30765;BMP180;494;48.744;10.106;2023-06-22T02:09:31;95703.00;;;20.00
30765;BMP180;494;48.744;10.106;2023-06-22T02:12:02;95809.00;;;20.10
30765;BMP180;494;48.744;10.106;2023-06-22T02:14:34;95815.00;;;19.90
30765;BMP180;494;48.744;10.106;2023-06-22T02:17:04;95763.00;;;19.80
30765;BMP180;494;48.744;10.106;2023-06-22T02:19:36;95842.00;;;19.70
30765;BMP180;494;48.744;10.106;2023-06-22T02:22:05;95833.00;;;19.60
30765;BMP180;494;48.744;10.106;2023-06-22T02:24:33;95197.00;;;19.40
30765;BMP180;494;48.744;10.106;2023-06-22T02:27:03;95700.00;;;19.40
30765;BMP180;494;48.744;10.106;2023-06-22T02:29:35;95785.00;;;19.40
30765;BMP180;494;48.744;10.106;2023-06-22T02:32:04;95788.00;;;19.50
30765;BMP180;494;48.744;10.106;2023-06-22T02:34:33;95782.00;;;19.30
30765;BMP180;494;48.744;10.106;2023-06-22T02:37:04;95837.00;;;19.20
30765;BMP180;494;48.744;10.106;2023-06-22T02:39:33;95833.00;;;19.40
30765;BMP180;494;48.744;10.106;2023-06-22T02:42:02;95828.00;;;19.30
30765;BMP180;494;48.744;10.106;2023-06-22T02:44:31;95799.00;;;19.20
30765;BMP180;494;48.744;10.106;2023-06-22T02:47:02;95829.00;;;19.30
30765;BMP180;494;48.744;10.106;2023-06-22T02:49:36;95834.00;;;19.40
30765;BMP180;494;48.744;10.106;2023-06-22T02:52:05;95773.00;;;19.20
30765;BMP180;494;48.744;10.106;2023-06-22T02:54:34;95802.00;;;19.20
30765;BMP180;494;48.744;10.106;2023-06-22T02:57:04;95832.00;;;19.20
30765;BMP180;494;48.744;10.106;2023-06-22T02:59:32;95728.00;;;19.20
30765;BMP180;494;48.744;10.106;2023-06-22T03:02:03;95828.00;;;19.00
30765;BMP180;494;48.744;10.106;2023-06-22T03:04:32;95832.00;;;19.00
30765;BMP180;494;48.744;10.106;2023-06-22T03:07:02;95783.00;;;19.00
30765;BMP180;494;48.744;10.106;2023-06-22T03:09:32;95766.00;;;18.80
30765;BMP180;494;48.744;10.106;2023-06-22T03:12:01;95830.00;;;18.80
30765;BMP180;494;48.744;10.106;2023-06-22T03:14:30;95820.00;;;19.00
30765;BMP180;494;48.744;10.106;2023-06-22T03:16:59;95756.00;;;19.00
30765;BMP180;494;48.744;10.106;2023-06-22T03:19:31;95764.00;;;18.90
30765;BMP180;494;48.744;10.106;2023-06-22T03:22:00;95826.00;;;19.10
30765;BMP180;494;48.744;10.106;2023-06-22T03:24:29;95813.00;;;19.10
30765;BMP180;494;48.744;10.106;2023-06-22T03:26:57;95799.00;;;19.10
30765;BMP180;494;48.744;10.106;2023-06-22T03:29:27;95739.00;;;19.20
30765;BMP180;494;48.744;10.106;2023-06-22T03:31:57;95682.00;;;19.20
30765;BMP180;494;48.744;10.106;2023-06-22T03:34:27;95773.00;;;19.20
30765;BMP180;494;48.744;10.106;2023-06-22T03:36:57;95738.00;;;19.20
30765;BMP180;494;48.744;10.106;2023-06-22T03:39:26;95807.00;;;19.30
30765;BMP180;494;48.744;10.106;2023-06-22T03:41:54;95600.00;;;19.20
30765;BMP180;494;48.744;10.106;2023-06-22T03:44:23;95805.00;;;19.20
30765;BMP180;494;48.744;10.106;2023-06-22T03:46:51;95806.00;;;19.10
30765;BMP180;494;48.744;10.106;2023-06-22T03:49:20;95807.00;;;19.10
30765;BMP180;494;48.744;10.106;2023-06-22T03:51:49;95746.00;;;19.10
30765;BMP180;494;48.744;10.106;2023-06-22T03:54:19;95808.00;;;19.00
30765;BMP180;494;48.744;10.106;2023-06-22T03:56:47;95703.00;;;19.10
30765;BMP180;494;48.744;10.106;2023-06-22T03:59:16;95800.00;;;19.30
30765;BMP180;494;48.744;10.106;2023-06-22T04:01:45;95723.00;;;19.20
30765;BMP180;494;48.744;10.106;2023-06-22T04:04:14;95798.00;;;19.30
30765;BMP180;494;48.744;10.106;2023-06-22T04:06:42;95797.00;;;19.40
30765;BMP180;494;48.744;10.106;2023-06-22T04:09:12;95803.00;;;19.40
30765;BMP180;494;48.744;10.106;2023-06-22T04:11:42;95793.00;;;19.40
30765;BMP180;494;48.744;10.106;2023-06-22T04:14:11;95676.00;;;18.70
30765;BMP180;494;48.744;10.106;2023-06-22T04:16:40;95744.00;;;19.60
30765;BMP180;494;48.744;10.106;2023-06-22T04:19:08;95799.00;;;19.50
30765;BMP180;494;48.744;10.106;2023-06-22T04:21:43;95804.00;;;19.80
30765;BMP180;494;48.744;10.106;2023-06-22T04:24:12;95812.00;;;19.80
30765;BMP180;494;48.744;10.106;2023-06-22T04:26:43;95805.00;;;20.00
30765;BMP180;494;48.744;10.106;2023-06-22T04:29:14;95726.00;;;20.00
30765;BMP180;494;48.744;10.106;2023-06-22T04:31:43;95807.00;;;20.10
30765;BMP180;494;48.744;10.106;2023-06-22T04:34:12;95837.00;;;20.10
30765;BMP180;494;48.744;10.106;2023-06-22T04:36:43;95702.00;;;20.20
30765;BMP180;494;48.744;10.106;2023-06-22T04:39:12;95793.00;;;20.20
30765;BMP180;494;48.744;10.106;2023-06-22T04:41:42;95605.00;;;20.20
30765;BMP180;494;48.744;10.106;2023-06-22T04:44:11;95688.00;;;20.40
30765;BMP180;494;48.744;10.106;2023-06-22T04:46:40;95788.00;;;20.50
30765;BMP180;494;48.744;10.106;2023-06-22T04:49:09;95729.00;;;20.40
30765;BMP180;494;48.744;10.106;2023-06-22T04:51:40;95774.00;;;20.50
30765;BMP180;494;48.744;10.106;2023-06-22T04:54:09;95493.00;;;20.40
30765;BMP180;494;48.744;10.106;2023-06-22T04:56:39;95778.00;;;20.80
30765;BMP180;494;48.744;10.106;2023-06-22T04:59:09;95777.00;;;20.80
30765;BMP180;494;48.744;10.106;2023-06-22T05:01:40;95549.00;;;21.00
30765;BMP180;494;48.744;10.106;2023-06-22T05:04:09;95723.00;;;21.10
30765;BMP180;494;48.744;10.106;2023-06-22T05:06:38;95721.00;;;21.30
30765;BMP180;494;48.744;10.106;2023-06-22T05:09:07;95665.00;;;21.30
30765;BMP180;494;48.744;10.106;2023-06-22T05:11:36;95715.00;;;21.40
30765;BMP180;494;48.744;10.106;2023-06-22T05:14:04;95696.00;;;21.50
30765;BMP180;494;48.744;10.106;2023-06-22T05:16:36;95752.00;;;21.70
30765;BMP180;494;48.744;10.106;2023-06-22T05:19:05;95672.00;;;21.80
30765;BMP180;494;48.744;10.106;2023-06-22T05:21:34;95755.00;;;22.00
30765;BMP180;494;48.744;10.106;2023-06-22T05:24:04;95704.00;;;22.20
30765;BMP180;494;48.744;10.106;2023-06-22T05:26:34;95706.00;;;21.90
30765;BMP180;494;48.744;10.106;2023-06-22T05:29:03;95633.00;;;22.30
30765;BMP180;494;48.744;10.106;2023-06-22T05:31:32;95734.00;;;22.40
30765;BMP180;494;48.744;10.106;2023-06-22T05:34:02;95584.00;;;22.50
30765;BMP180;494;48.744;10.106;2023-06-22T05:36:31;95550.00;;;22.60
30765;BMP180;494;48.744;10.106;2023-06-22T05:39:11;95688.00;;;22.50
30765;BMP180;494;48.744;10.106;2023-06-22T05:41:45;95736.00;;;22.40
30765;BMP180;494;48.744;10.106;2023-06-22T05:44:14;95610.00;;;22.50
30765;BMP180;494;48.744;10.106;2023-06-22T05:46:46;95732.00;;;22.70
30765;BMP180;494;48.744;10.106;2023-06-22T05:49:17;95365.00;;;22.40
30765;BMP180;494;48.744;10.106;2023-06-22T05:51:47;95721.00;;;22.40
30765;BMP180;494;48.744;10.106;2023-06-22T05:54:24;95723.00;;;22.90
30765;BMP180;494;48.744;10.106;2023-06-22T05:56:54;95614.00;;;22.90
30765;BMP180;494;48.744;10.106;2023-06-22T05:59:23;95717.00;;;23.20
30765;BMP180;494;48.744;10.106;2023-06-22T06:01:52;95714.00;;;23.30
30765;BMP180;494;48.744;10.106;2023-06-22T06:04:22;95715.00;;;23.50
30765;BMP180;494;48.744;10.106;2023-06-22T06:06:51;95475.00;;;23.80
30765;BMP180;494;48.744;10.106;2023-06-22T06:09:20;95656.00;;;24.10
30765;BMP180;494;48.744;10.106;2023-06-22T06:11:49;95638.00;;;24.20
30765;BMP180;494;48.744;10.106;2023-06-22T06:14:17;95628.00;;;24.20
30765;BMP180;494;48.744;10.106;2023-06-22T06:16:49;95635.00;;;24.40
30765;BMP180;494;48.744;10.106;2023-06-22T06:19:18;95697.00;;;24.60
30765;BMP180;494;48.744;10.106;2023-06-22T06:21:48;95661.00;;;24.70
30765;BMP180;494;48.744;10.106;2023-06-22T06:24:17;95654.00;;;24.60
30765;BMP180;494;48.744;10.106;2023-06-22T06:26:46;95702.00;;;24.60
30765;BMP180;494;48.744;10.106;2023-06-22T06:29:17;95631.00;;;24.70
30765;BMP180;494;48.744;10.106;2023-06-22T06:31:46;95394.00;;;24.50
30765;BMP180;494;48.744;10.106;2023-06-22T06:34:15;95704.00;;;24.40
30765;BMP180;494;48.744;10.106;2023-06-22T06:36:44;95595.00;;;24.50
30765;BMP180;494;48.744;10.106;2023-06-22T06:39:14;95628.00;;;24.70
30765;BMP180;494;48.744;10.106;2023-06-22T06:41:43;95442.00;;;25.00
30765;BMP180;494;48.744;10.106;2023-06-22T06:44:12;95642.00;;;25.50
30765;BMP180;494;48.744;10.106;2023-06-22T06:46:41;95581.00;;;25.80
30765;BMP180;494;48.744;10.106;2023-06-22T06:49:10;95684.00;;;25.70
30765;BMP180;494;48.744;10.106;2023-06-22T06:51:39;95678.00;;;26.10
30765;BMP180;494;48.744;10.106;2023-06-22T06:54:08;95610.00;;;26.10
30765;BMP180;494;48.744;10.106;2023-06-22T06:56:38;95612.00;;;26.00
30765;BMP180;494;48.744;10.106;2023-06-22T06:59:07;95680.00;;;26.00
30765;BMP180;494;48.744;10.106;2023-06-22T07:01:36;95615.00;;;26.10
30765;BMP180;494;48.744;10.106;2023-06-22T07:04:04;95476.00;;;26.40
30765;BMP180;494;48.744;10.106;2023-06-22T07:06:33;95618.00;;;26.50
30765;BMP180;494;48.744;10.106;2023-06-22T07:09:02;95618.00;;;26.50
30765;BMP180;494;48.744;10.106;2023-06-22T07:11:31;95623.00;;;26.90
30765;BMP180;494;48.744;10.106;2023-06-22T07:14:01;95614.00;;;26.80
30765;BMP180;494;48.744;10.106;2023-06-22T07:16:30;95666.00;;;27.00
30765;BMP180;494;48.744;10.106;2023-06-22T07:18:59;95669.00;;;27.40
30765;BMP180;494;48.744;10.106;2023-06-22T07:21:28;95635.00;;;27.60
30765;BMP180;494;48.744;10.106;2023-06-22T07:23:57;95672.00;;;27.50
30765;BMP180;494;48.744;10.106;2023-06-22T07:26:26;95685.00;;;27.90
30765;BMP180;494;48.744;10.106;2023-06-22T07:28:55;95680.00;;;27.90
30765;BMP180;494;48.744;10.106;2023-06-22T07:31:26;95602.00;;;27.90
30765;BMP180;494;48.744;10.106;2023-06-22T07:33:54;95638.00;;;28.40
30765;BMP180;494;48.744;10.106;2023-06-22T07:36:23;95568.00;;;28.70
30765;BMP180;494;48.744;10.106;2023-06-22T07:38:52;95672.00;;;29.20
30765;BMP180;494;48.744;10.106;2023-06-22T07:41:20;95644.00;;;29.00
30765;BMP180;494;48.744;10.106;2023-06-22T07:43:49;95222.00;;;29.00
30765;BMP180;494;48.744;10.106;2023-06-22T07:46:18;95644.00;;;29.10
30765;BMP180;494;48.744;10.106;2023-06-22T07:48:48;95640.00;;;29.10
30765;BMP180;494;48.744;10.106;2023-06-22T07:51:20;95675.00;;;29.10
30765;BMP180;494;48.744;10.106;2023-06-22T07:53:48;95666.00;;;29.10
30765;BMP180;494;48.744;10.106;2023-06-22T07:56:17;95551.00;;;29.20
30765;BMP180;494;48.744;10.106;2023-06-22T07:58:47;95664.00;;;29.10
30765;BMP180;494;48.744;10.106;2023-06-22T08:01:16;95664.00;;;29.40
30765;BMP180;494;48.744;10.106;2023-06-22T08:03:50;95630.00;;;29.30
30765;BMP180;494;48.744;10.106;2023-06-22T08:06:19;95632.00;;;29.30
30765;BMP180;494;48.744;10.106;2023-06-22T08:08:48;95567.00;;;29.70
30765;BMP180;494;48.744;10.106;2023-06-22T08:11:17;95663.00;;;30.00
30765;BMP180;494;48.744;10.106;2023-06-22T08:13:46;95524.00;;;30.00
30765;BMP180;494;48.744;10.106;2023-06-22T08:16:14;95671.00;;;30.30
30765;BMP180;494;48.744;10.106;2023-06-22T08:18:44;95665.00;;;30.30
30765;BMP180;494;48.744;10.106;2023-06-22T08:21:14;95560.00;;;30.30
30765;BMP180;494;48.744;10.106;2023-06-22T08:23:43;95635.00;;;30.20
30765;BMP180;494;48.744;10.106;2023-06-22T08:26:12;95658.00;;;30.30
30765;BMP180;494;48.744;10.106;2023-06-22T08:28:41;95661.00;;;30.70
30765;BMP180;494;48.744;10.106;2023-06-22T08:31:09;95605.00;;;30.80
30765;BMP180;494;48.744;10.106;2023-06-22T08:33:39;95538.00;;;30.50
30765;BMP180;494;48.744;10.106;2023-06-22T08:36:17;95663.00;;;30.40
30765;BMP180;494;48.744;10.106;2023-06-22T08:38:46;95645.00;;;30.50
30765;BMP180;494;48.744;10.106;2023-06-22T08:41:18;95647.00;;;30.50
30765;BMP180;494;48.744;10.106;2023-06-22T08:43:46;95647.00;;;30.30
30765;BMP180;494;48.744;10.106;2023-06-22T08:46:15;95642.00;;;30.50
30765;BMP180;494;48.744;10.106;2023-06-22T08:48:47;95644.00;;;30.20
30765;BMP180;494;48.744;10.106;2023-06-22T08:51:17;95634.00;;;30.10
30765;BMP180;494;48.744;10.106;2023-06-22T08:53:46;95584.00;;;30.10
30765;BMP180;494;48.744;10.106;2023-06-22T08:56:15;95563.00;;;30.20
30765;BMP180;494;48.744;10.106;2023-06-22T08:58:44;95627.00;;;30.70
30765;BMP180;494;48.744;10.106;2023-06-22T09:01:13;95544.00;;;30.50
30765;BMP180;494;48.744;10.106;2023-06-22T09:03:43;95630.00;;;30.70
30765;BMP180;494;48.744;10.106;2023-06-22T09:06:12;95611.00;;;30.70
30765;BMP180;494;48.744;10.106;2023-06-22T09:08:43;95631.00;;;31.00
30765;BMP180;494;48.744;10.106;2023-06-22T09:11:12;95623.00;;;31.10
30765;BMP180;494;48.744;10.106;2023-06-22T09:13:41;95293.00;;;31.30
30765;BMP180;494;48.744;10.106;2023-06-22T09:16:09;95601.00;;;31.20
30765;BMP180;494;48.744;10.106;2023-06-22T09:18:39;95579.00;;;31.40
30765;BMP180;494;48.744;10.106;2023-06-22T09:21:07;95544.00;;;31.40
30765;BMP180;494;48.744;10.106;2023-06-22T09:23:36;95625.00;;;31.60
30765;BMP180;494;48.744;10.106;2023-06-22T09:26:06;95580.00;;;32.10
30765;BMP180;494;48.744;10.106;2023-06-22T09:28:35;95633.00;;;32.40
30765;BMP180;494;48.744;10.106;2023-06-22T09:31:04;95652.00;;;32.50
30765;BMP180;494;48.744;10.106;2023-06-22T09:33:34;95640.00;;;32.60
30765;BMP180;494;48.744;10.106;2023-06-22T09:36:05;95611.00;;;32.50
30765;BMP180;494;48.744;10.106;2023-06-22T09:38:35;95609.00;;;32.20
30765;BMP180;494;48.744;10.106;2023-06-22T09:41:04;95621.00;;;32.10
30765;BMP180;494;48.744;10.106;2023-06-22T09:43:34;95614.00;;;32.70
30765;BMP180;494;48.744;10.106;2023-06-22T09:46:04;95356.00;;;32.90
30765;BMP180;494;48.744;10.106;2023-06-22T09:48:34;95658.00;;;33.10
30765;BMP180;494;48.744;10.106;2023-06-22T09:51:07;95663.00;;;33.40
30765;BMP180;494;48.744;10.106;2023-06-22T09:53:36;95657.00;;;33.70
30765;BMP180;494;48.744;10.106;2023-06-22T09:56:05;95629.00;;;33.50
30765;BMP180;494;48.744;10.106;2023-06-22T09:58:42;95676.00;;;33.90
30765;BMP180;494;48.744;10.106;2023-06-22T10:01:11;95680.00;;;34.40
30765;BMP180;494;48.744;10.106;2023-06-22T10:03:40;95639.00;;;34.50
30765;BMP180;494;48.744;10.106;2023-06-22T10:06:09;95667.00;;;34.40
30765;BMP180;494;48.744;10.106;2023-06-22T10:08:38;95678.00;;;34.20
30765;BMP180;494;48.744;10.106;2023-06-22T10:11:08;95675.00;;;34.40
30765;BMP180;494;48.744;10.106;2023-06-22T10:13:37;95656.00;;;34.60
30765;BMP180;494;48.744;10.106;2023-06-22T10:16:07;95670.00;;;34.60
30765;BMP180;494;48.744;10.106;2023-06-22T10:18:36;95686.00;;;35.00
30765;BMP180;494;48.744;10.106;2023-06-22T10:21:04;95670.00;;;34.80
30765;BMP180;494;48.744;10.106;2023-06-22T10:23:33;95669.00;;;35.00
30765;BMP180;494;48.744;10.106;2023-06-22T10:26:02;95659.00;;;35.40
30765;BMP180;494;48.744;10.106;2023-06-22T10:28:31;95633.00;;;35.50
30765;BMP180;494;48.744;10.106;2023-06-22T10:30:59;95644.00;;;35.50
30765;BMP180;494;48.744;10.106;2023-06-22T10:33:30;95642.00;;;35.60
30765;BMP180;494;48.744;10.106;2023-06-22T10:35:58;95604.00;;;35.80
30765;BMP180;494;48.744;10.106;2023-06-22T10:38:27;95662.00;;;36.00
30765;BMP180;494;48.744;10.106;2023-06-22T10:40:56;95634.00;;;36.10
30765;BMP180;494;48.744;10.106;2023-06-22T10:43:25;95550.00;;;36.10
30765;BMP180;494;48.744;10.106;2023-06-22T10:45:56;95630.00;;;36.30
30765;BMP180;494;48.744;10.106;2023-06-22T10:48:25;95617.00;;;36.10
30765;BMP180;494;48.744;10.106;2023-06-22T10:50:55;95608.00;;;35.90
30765;BMP180;494;48.744;10.106;2023-06-22T10:53:24;95533.00;;;36.10
30765;BMP180;494;48.744;10.106;2023-06-22T10:55:52;95565.00;;;36.20
30765;BMP180;494;48.744;10.106;2023-06-22T10:58:23;95622.00;;;36.10
30765;BMP180;494;48.744;10.106;2023-06-22T11:00:52;95618.00;;;36.10
30765;BMP180;494;48.744;10.106;2023-06-22T11:03:21;95631.00;;;36.20
30765;BMP180;494;48.744;10.106;2023-06-22T11:05:50;95608.00;;;36.40
30765;BMP180;494;48.744;10.106;2023-06-22T11:08:21;95614.00;;;36.60
30765;BMP180;494;48.744;10.106;2023-06-22T11:10:51;95587.00;;;36.80
30765;BMP180;494;48.744;10.106;2023-06-22T11:13:19;95497.00;;;36.90
30765;BMP180;494;48.744;10.106;2023-06-22T11:15:48;95607.00;;;37.20
30765;BMP180;494;48.744;10.106;2023-06-22T11:18:17;95522.00;;;37.70
30765;BMP180;494;48.744;10.106;2023-06-22T11:20:46;95606.00;;;37.90
30765;BMP180;494;48.744;10.106;2023-06-22T11:23:20;95605.00;;;37.70
30765;BMP180;494;48.744;10.106;2023-06-22T11:25:49;95618.00;;;37.20
30765;BMP180;494;48.744;10.106;2023-06-22T11:28:18;95608.00;;;37.70
30765;BMP180;494;48.744;10.106;2023-06-22T11:30:46;95553.00;;;37.50
30765;BMP180;494;48.744;10.106;2023-06-22T11:33:15;95602.00;;;37.80
30765;BMP180;494;48.744;10.106;2023-06-22T11:35:44;95615.00;;;37.70
30765;BMP180;494;48.744;10.106;2023-06-22T11:38:13;95605.00;;;37.00
30765;BMP180;494;48.744;10.106;2023-06-22T11:40:44;95611.00;;;37.70
30765;BMP180;494;48.744;10.106;2023-06-22T11:43:13;95553.00;;;37.50
30765;BMP180;494;48.744;10.106;2023-06-22T11:45:43;95569.00;;;37.30
30765;BMP180;494;48.744;10.106;2023-06-22T11:48:12;95534.00;;;37.80
30765;BMP180;494;48.744;10.106;2023-06-22T11:50:41;95601.00;;;38.10
30765;BMP180;494;48.744;10.106;2023-06-22T11:53:10;95595.00;;;38.10
30765;BMP180;494;48.744;10.106;2023-06-22T11:55:39;95589.00;;;37.70
30765;BMP180;494;48.744;10.106;2023-06-22T11:58:10;95598.00;;;38.00
30765;BMP180;494;48.744;10.106;2023-06-22T12:00:40;95589.00;;;38.60
30765;BMP180;494;48.744;10.106;2023-06-22T12:03:18;95466.00;;;38.70
30765;BMP180;494;48.744;10.106;2023-06-22T12:05:51;95543.00;;;38.90
30765;BMP180;494;48.744;10.106;2023-06-22T12:08:21;95570.00;;;38.90
30765;BMP180;494;48.744;10.106;2023-06-22T12:10:52;95571.00;;;39.20
30765;BMP180;494;48.744;10.106;2023-06-22T12:13:23;95577.00;;;39.00
30765;BMP180;494;48.744;10.106;2023-06-22T12:15:52;95553.00;;;38.30
30765;BMP180;494;48.744;10.106;2023-06-22T12:18:21;95566.00;;;38.20
30765;BMP180;494;48.744;10.106;2023-06-22T12:20:50;95594.00;;;37.70
30765;BMP180;494;48.744;10.106;2023-06-22T12:23:20;95512.00;;;37.20
30765;BMP180;494;48.744;10.106;2023-06-22T12:25:49;95586.00;;;37.50
30765;BMP180;494;48.744;10.106;2023-06-22T12:28:19;95581.00;;;37.40
30765;BMP180;494;48.744;10.106;2023-06-22T12:30:52;95510.00;;;37.30
30765;BMP180;494;48.744;10.106;2023-06-22T12:33:21;95592.00;;;37.70
30765;BMP180;494;48.744;10.106;2023-06-22T12:35:50;95546.00;;;38.00
30765;BMP180;494;48.744;10.106;2023-06-22T12:38:19;95568.00;;;37.90
30765;BMP180;494;48.744;10.106;2023-06-22T12:40:48;95587.00;;;38.10
30765;BMP180;494;48.744;10.106;2023-06-22T12:43:17;95541.00;;;38.30
30765;BMP180;494;48.744;10.106;2023-06-22T12:45:47;95559.00;;;38.20
30765;BMP180;494;48.744;10.106;2023-06-22T12:48:17;95522.00;;;38.50
30765;BMP180;494;48.744;10.106;2023-06-22T12:50:46;95569.00;;;38.60
30765;BMP180;494;48.744;10.106;2023-06-22T12:53:16;95380.00;;;38.40
30765;BMP180;494;48.744;10.106;2023-06-22T12:55:46;95523.00;;;38.40
30765;BMP180;494;48.744;10.106;2023-06-22T12:58:15;95568.00;;;38.70
30765;BMP180;494;48.744;10.106;2023-06-22T13:00:44;95576.00;;;39.20
30765;BMP180;494;48.744;10.106;2023-06-22T13:03:13;95515.00;;;39.00
30765;BMP180;494;48.744;10.106;2023-06-22T13:05:43;95569.00;;;39.20
30765;BMP180;494;48.744;10.106;2023-06-22T13:08:13;95585.00;;;38.70
30765;BMP180;494;48.744;10.106;2023-06-22T13:10:42;95548.00;;;38.60
30765;BMP180;494;48.744;10.106;2023-06-22T13:13:12;95580.00;;;38.80
30765;BMP180;494;48.744;10.106;2023-06-22T13:15:41;95562.00;;;38.80
30765;BMP180;494;48.744;10.106;2023-06-22T13:18:10;95575.00;;;39.40
30765;BMP180;494;48.744;10.106;2023-06-22T13:20:42;95513.00;;;39.60
30765;BMP180;494;48.744;10.106;2023-06-22T13:23:12;95575.00;;;39.10
30765;BMP180;494;48.744;10.106;2023-06-22T13:25:41;95532.00;;;38.70
30765;BMP180;494;48.744;10.106;2023-06-22T13:28:11;95516.00;;;38.30
30765;BMP180;494;48.744;10.106;2023-06-22T13:30:55;95578.00;;;37.90
30765;BMP180;494;48.744;10.106;2023-06-22T13:33:24;95373.00;;;37.40
30765;BMP180;494;48.744;10.106;2023-06-22T13:35:56;95576.00;;;37.50
30765;BMP180;494;48.744;10.106;2023-06-22T13:38:25;95530.00;;;37.40
30765;BMP180;494;48.744;10.106;2023-06-22T13:40:54;95499.00;;;37.20
30765;BMP180;494;48.744;10.106;2023-06-22T13:43:26;95581.00;;;37.30
30765;BMP180;494;48.744;10.106;2023-06-22T13:45:55;95463.00;;;36.60
30765;BMP180;494;48.744;10.106;2023-06-22T13:48:25;95565.00;;;36.90
30765;BMP180;494;48.744;10.106;2023-06-22T13:50:57;95520.00;;;36.80
30765;BMP180;494;48.744;10.106;2023-06-22T13:53:25;95561.00;;;36.70
30765;BMP180;494;48.744;10.106;2023-06-22T13:55:55;95487.00;;;36.70
30765;BMP180;494;48.744;10.106;2023-06-22T13:58:24;95506.00;;;36.60
30765;BMP180;494;48.744;10.106;2023-06-22T14:00:53;95553.00;;;36.60
30765;BMP180;494;48.744;10.106;2023-06-22T14:03:24;95504.00;;;36.90
30765;BMP180;494;48.744;10.106;2023-06-22T14:05:53;95547.00;;;37.30
30765;BMP180;494;48.744;10.106;2023-06-22T14:08:25;95492.00;;;37.10
30765;BMP180;494;48.744;10.106;2023-06-22T14:10:57;95552.00;;;36.80
30765;BMP180;494;48.744;10.106;2023-06-22T14:13:26;95554.00;;;36.60
30765;BMP180;494;48.744;10.106;2023-06-22T14:15:55;95504.00;;;36.60
30765;BMP180;494;48.744;10.106;2023-06-22T14:18:24;95528.00;;;36.30
30765;BMP180;494;48.744;10.106;2023-06-22T14:20:53;95530.00;;;36.70
30765;BMP180;494;48.744;10.106;2023-06-22T14:23:25;95422.00;;;37.40
30765;BMP180;494;48.744;10.106;2023-06-22T14:25:53;95506.00;;;37.80
30765;BMP180;494;48.744;10.106;2023-06-22T14:28:22;95509.00;;;38.00
30765;BMP180;494;48.744;10.106;2023-06-22T14:30:51;95454.00;;;38.30
30765;BMP180;494;48.744;10.106;2023-06-22T14:33:20;95464.00;;;38.30
30765;BMP180;494;48.744;10.106;2023-06-22T14:35:49;95517.00;;;38.30
30765;BMP180;494;48.744;10.106;2023-06-22T14:38:18;95301.00;;;37.90